createdAt,value
2022-12-08T00:01:34.482Z,82.24
2022-12-08T00:04:03.055Z,82.19
2022-12-08T00:06:49.903Z,80.54
2022-12-08T00:09:39.338Z,81.76
2022-12-08T00:12:12.306Z,83.63
2022-12-08T00:14:51.420Z,82.44
2022-12-08T00:17:18.096Z,83.40
2022-12-08T00:19:45.098Z,83.01
2022-12-08T00:22:15.532Z,83.79
2022-12-08T00:24:45.537Z,82.93
2022-12-08T00:27:14.431Z,83.69
2022-12-08T00:29:45.616Z,84.48
2022-12-08T00:32:12.864Z,83.89
2022-12-08T00:34:39.531Z,83.12
2022-12-08T00:37:06.525Z,83.05
2022-12-08T00:39:33.235Z,83.13
2022-12-08T00:42:26.106Z,84.39
2022-12-08T00:44:52.743Z,83.71
2022-12-08T00:47:24.510Z,84.28
2022-12-08T00:49:52.072Z,83.88
2022-12-08T00:52:18.731Z,84.15
2022-12-08T00:54:45.499Z,84.03
2022-12-08T00:57:12.112Z,82.92
2022-12-08T00:59:38.872Z,82.45
2022-12-08T01:02:05.974Z,82.21
2022-12-08T01:04:32.667Z,81.37
2022-12-08T01:06:59.259Z,82.68
2022-12-08T01:09:25.921Z,83.43
2022-12-08T01:11:52.528Z,82.91
2022-12-08T01:14:22.431Z,82.81
2022-12-08T01:19:32.543Z,83.14
2022-12-08T01:22:01.416Z,82.64
2022-12-08T01:24:30.229Z,82.56
2022-12-08T01:26:56.837Z,83.16
2022-12-08T01:29:29.827Z,82.53
2022-12-08T01:31:56.464Z,83.20
2022-12-08T01:34:25.438Z,83.76
2022-12-08T01:36:52.102Z,84.26
2022-12-08T01:39:19.586Z,84.21
2022-12-08T01:41:47.815Z,84.20
2022-12-08T01:44:14.332Z,84.18
2022-12-08T01:46:47.387Z,83.84
2022-12-08T01:49:34.167Z,83.34
2022-12-08T01:52:14.246Z,83.01
2022-12-08T01:54:53.842Z,82.80
2022-12-08T01:57:28.504Z,82.68
2022-12-08T02:00:02.807Z,83.78
2022-12-08T02:02:40.291Z,83.75
2022-12-08T02:05:07.595Z,83.95
2022-12-08T02:07:35.586Z,83.87
2022-12-08T02:10:06.440Z,83.71
2022-12-08T02:12:33.567Z,83.47
2022-12-08T02:15:04.708Z,83.36
2022-12-08T02:18:01.459Z,83.49
2022-12-08T02:21:00.648Z,83.29
2022-12-08T02:23:37.245Z,83.34
2022-12-08T02:26:18.684Z,82.90
2022-12-08T02:29:06.329Z,83.00
2022-12-08T02:32:12.569Z,83.34
2022-12-08T02:34:55.085Z,83.78
2022-12-08T02:37:42.951Z,83.38
2022-12-08T02:40:22.044Z,83.49
2022-12-08T02:43:01.512Z,84.33
2022-12-08T02:45:35.063Z,84.15
2022-12-08T02:48:01.911Z,84.12
2022-12-08T02:50:31.058Z,84.34
2022-12-08T02:52:57.770Z,83.03
2022-12-08T02:56:06.910Z,83.00
2022-12-08T02:59:14.243Z,82.37
2022-12-08T03:02:13.875Z,82.22
2022-12-08T03:04:50.448Z,82.77
2022-12-08T03:07:30.067Z,83.79
2022-12-08T03:10:06.136Z,83.10
2022-12-08T03:12:59.051Z,82.68
2022-12-08T03:15:25.806Z,82.18
2022-12-08T03:17:58.839Z,82.39
2022-12-08T03:20:30.131Z,82.40
2022-12-08T03:22:59.368Z,82.76
2022-12-08T03:25:30.324Z,82.69
2022-12-08T03:27:57.088Z,82.32
2022-12-08T03:30:30.689Z,82.45
2022-12-08T03:33:07.304Z,82.73
2022-12-08T03:35:37.277Z,82.65
2022-12-08T03:38:10.764Z,82.46
2022-12-08T03:40:40.948Z,82.62
2022-12-08T03:43:08.087Z,82.15
2022-12-08T03:45:34.789Z,81.82
2022-12-08T03:48:02.496Z,81.77
2022-12-08T03:50:29.086Z,81.23
2022-12-08T03:52:55.743Z,82.77
2022-12-08T03:55:22.347Z,82.51
2022-12-08T03:57:54.205Z,81.44
2022-12-08T04:00:21.029Z,81.65
2022-12-08T04:02:50.764Z,81.13
2022-12-08T04:05:17.404Z,80.98
2022-12-08T04:07:46.269Z,81.63
2022-12-08T04:10:13.298Z,81.06
2022-12-08T04:12:39.936Z,81.21
2022-12-08T04:15:07.155Z,81.10
2022-12-08T04:17:33.713Z,81.40
2022-12-08T04:20:03.925Z,81.35
2022-12-08T04:22:30.833Z,80.41
2022-12-08T04:24:57.723Z,80.27
2022-12-08T04:27:24.339Z,80.69
2022-12-08T04:29:50.938Z,80.16
2022-12-08T04:32:17.549Z,80.62
2022-12-08T04:34:44.121Z,81.12
2022-12-08T04:37:10.775Z,80.47
2022-12-08T04:39:37.372Z,80.16
2022-12-08T04:42:04.086Z,81.12
2022-12-08T04:44:30.744Z,80.38
2022-12-08T04:46:59.878Z,80.41
2022-12-08T04:49:26.488Z,80.63
2022-12-08T04:52:00.460Z,80.23
2022-12-08T04:54:27.130Z,80.35
2022-12-08T04:56:53.843Z,81.12
2022-12-08T04:59:20.507Z,79.86
2022-12-08T05:01:47.198Z,80.54
2022-12-08T05:04:14.456Z,80.00
2022-12-08T05:06:41.025Z,79.56
2022-12-08T05:09:07.818Z,80.08
2022-12-08T05:11:34.404Z,79.91
2022-12-08T05:14:26.091Z,79.73
2022-12-08T05:16:52.811Z,80.43
2022-12-08T05:19:19.458Z,80.51
2022-12-08T05:21:46.923Z,80.12
2022-12-08T05:24:13.587Z,80.18
2022-12-08T05:26:40.192Z,79.79
2022-12-08T05:29:06.843Z,79.82
2022-12-08T05:31:35.667Z,80.26
2022-12-08T05:34:03.430Z,80.47
2022-12-08T05:36:30.744Z,80.55
2022-12-08T05:38:58.653Z,80.45
2022-12-08T05:41:25.392Z,80.23
2022-12-08T05:43:52.022Z,80.10
2022-12-08T05:46:18.851Z,79.98
2022-12-08T05:48:45.587Z,80.22
2022-12-08T05:51:32.388Z,80.36
2022-12-08T05:53:59.159Z,79.18
2022-12-08T05:56:25.758Z,79.56
2022-12-08T05:58:52.483Z,79.73
2022-12-08T06:01:25.261Z,79.44
2022-12-08T06:03:52.572Z,79.41
2022-12-08T06:06:19.273Z,79.67
2022-12-08T06:08:46.149Z,80.47
2022-12-08T06:11:24.604Z,80.23
2022-12-08T06:13:51.787Z,80.03
2022-12-08T06:16:19.583Z,80.73
2022-12-08T06:18:46.598Z,80.15
2022-12-08T06:21:15.572Z,80.92
2022-12-08T06:23:42.619Z,79.64
2022-12-08T06:26:12.604Z,80.50
2022-12-08T06:28:39.866Z,80.17
2022-12-08T06:31:26.737Z,79.55
2022-12-08T06:33:54.550Z,78.43
2022-12-08T06:36:22.554Z,79.11
2022-12-08T06:38:49.419Z,79.71
2022-12-08T06:41:16.751Z,79.81
2022-12-08T06:43:43.972Z,79.69
2022-12-08T06:46:14.470Z,79.42
2022-12-08T06:48:41.551Z,79.10
2022-12-08T06:51:33.861Z,79.89
2022-12-08T06:54:01.415Z,80.54
2022-12-08T06:56:28.163Z,79.99
2022-12-08T06:58:56.279Z,80.70
2022-12-08T07:01:23.002Z,80.51
2022-12-08T07:03:49.970Z,80.61
2022-12-08T07:06:20.698Z,80.30
2022-12-08T07:08:47.354Z,80.56
2022-12-08T07:11:20.943Z,80.16
2022-12-08T07:13:48.493Z,79.93
2022-12-08T07:16:15.210Z,80.57
2022-12-08T07:19:06.632Z,80.13
2022-12-08T07:21:33.230Z,80.65
2022-12-08T07:23:59.926Z,80.78
2022-12-08T07:26:27.134Z,80.50
2022-12-08T07:28:53.967Z,80.35
2022-12-08T07:31:23.769Z,80.24
2022-12-08T07:33:50.927Z,79.44
2022-12-08T07:36:18.153Z,79.69
2022-12-08T07:38:44.794Z,79.11
2022-12-08T07:41:16.426Z,78.90
2022-12-08T07:43:43.308Z,79.57
2022-12-08T07:46:18.486Z,79.44
2022-12-08T07:48:46.230Z,79.05
2022-12-08T07:51:13.927Z,78.94
2022-12-08T07:53:43.868Z,79.79
2022-12-08T07:56:13.741Z,80.21
2022-12-08T07:58:41.598Z,79.53
2022-12-08T08:01:20.161Z,80.32
2022-12-08T08:03:48.955Z,81.65
2022-12-08T08:06:15.914Z,81.34
2022-12-08T08:08:45.695Z,82.19
2022-12-08T08:11:17.397Z,81.60
2022-12-08T08:13:47.971Z,82.31
2022-12-08T08:16:20.890Z,82.56
2022-12-08T08:18:50.441Z,82.77
2022-12-08T08:24:06.476Z,82.70
2022-12-08T08:26:33.037Z,82.73
2022-12-08T08:29:01.809Z,82.39
2022-12-08T08:31:28.528Z,83.30
2022-12-08T08:33:57.503Z,81.95
2022-12-08T08:36:24.087Z,82.77
2022-12-08T08:38:52.374Z,83.02
2022-12-08T08:41:21.290Z,82.96
2022-12-08T08:43:47.895Z,83.55
2022-12-08T08:46:16.987Z,83.41
2022-12-08T08:48:43.658Z,82.58
2022-12-08T08:51:13.291Z,83.05
2022-12-08T08:53:40.490Z,82.45
2022-12-08T08:56:15.938Z,82.58
2022-12-08T08:58:42.603Z,82.97
2022-12-08T09:01:09.301Z,82.09
2022-12-08T09:03:35.966Z,82.35
2022-12-08T09:06:04.899Z,82.15
2022-12-08T09:08:31.735Z,82.26
2022-12-08T09:10:58.330Z,82.00
2022-12-08T09:13:25.032Z,81.30
2022-12-08T09:15:51.800Z,81.23
2022-12-08T09:18:18.590Z,81.03
2022-12-08T09:20:47.639Z,80.43
2022-12-08T09:23:17.352Z,80.23
2022-12-08T09:25:54.275Z,80.14
2022-12-08T09:28:20.893Z,79.81
2022-12-08T09:30:47.545Z,80.62
2022-12-08T09:33:14.175Z,80.44
2022-12-08T09:35:41.696Z,80.28
2022-12-08T09:38:08.366Z,80.60
2022-12-08T09:40:50.510Z,80.51
2022-12-08T09:43:41.927Z,80.77
2022-12-08T09:46:17.454Z,81.52
2022-12-08T09:49:00.532Z,81.53
2022-12-08T09:51:34.477Z,80.97
2022-12-08T09:54:13.050Z,81.70
2022-12-08T09:56:40.076Z,81.32
2022-12-08T09:59:26.185Z,80.69
2022-12-08T10:01:54.957Z,81.95
2022-12-08T10:04:35.340Z,81.88
2022-12-08T10:07:17.240Z,81.15
2022-12-08T10:10:05.979Z,82.13
2022-12-08T10:13:02.145Z,81.19
2022-12-08T10:15:28.860Z,81.17
2022-12-08T10:17:57.783Z,81.20
2022-12-08T10:20:28.672Z,81.18
2022-12-08T10:23:23.143Z,80.22
2022-12-08T10:25:54.426Z,80.20
2022-12-08T10:28:21.074Z,81.22
2022-12-08T10:30:47.625Z,81.18
2022-12-08T10:33:20.641Z,81.77
2022-12-08T10:35:50.405Z,81.02
2022-12-08T10:38:22.972Z,80.89
2022-12-08T10:40:52.188Z,79.90
2022-12-08T10:43:25.612Z,80.56
2022-12-08T10:45:52.787Z,81.73
2022-12-08T10:48:23.113Z,81.90
2022-12-08T10:50:57.545Z,82.32
2022-12-08T10:53:26.854Z,83.15
2022-12-08T10:56:06.867Z,82.55
2022-12-08T10:58:41.117Z,82.33
2022-12-08T11:01:21.232Z,82.36
2022-12-08T11:03:53.208Z,82.52
2022-12-08T11:06:23.761Z,82.07
2022-12-08T11:08:56.022Z,81.37
2022-12-08T11:11:37.892Z,81.88
2022-12-08T11:14:09.144Z,82.05
2022-12-08T11:16:36.036Z,81.17
2022-12-08T11:19:07.958Z,80.27
2022-12-08T11:21:37.318Z,80.72
2022-12-08T11:24:25.088Z,81.15
2022-12-08T11:26:59.295Z,81.47
2022-12-08T11:29:33.852Z,81.14
2022-12-08T11:35:15.047Z,80.14
2022-12-08T11:37:43.829Z,79.60
2022-12-08T11:40:23.510Z,79.76
2022-12-08T11:42:59.456Z,79.74
2022-12-08T11:45:30.376Z,79.48
2022-12-08T11:48:26.770Z,79.92
2022-12-08T11:51:05.218Z,80.37
2022-12-08T11:53:44.264Z,80.26
2022-12-08T11:56:19.634Z,80.29
2022-12-08T11:58:52.028Z,81.72
2022-12-08T12:01:21.942Z,81.48
2022-12-08T12:04:11.463Z,80.67
2022-12-08T12:07:00.289Z,80.74
2022-12-08T12:09:32.675Z,80.81
2022-12-08T12:12:21.343Z,80.19
2022-12-08T12:15:15.845Z,81.48
2022-12-08T12:17:53.013Z,81.08
2022-12-08T12:20:31.786Z,79.80
2022-12-08T12:23:16.198Z,79.50
2022-12-08T12:26:38.290Z,79.00
2022-12-08T12:29:18.210Z,79.39
2022-12-08T12:31:52.545Z,79.18
2022-12-08T12:34:56.966Z,79.00
2022-12-08T12:37:40.005Z,79.18
2022-12-08T12:40:17.708Z,79.56
2022-12-08T12:42:59.075Z,79.41
2022-12-08T12:45:33.545Z,79.01
2022-12-08T12:48:00.230Z,78.99
2022-12-08T12:50:43.592Z,78.82
2022-12-08T12:53:16.505Z,78.73
2022-12-08T12:55:46.099Z,78.61
2022-12-08T12:58:30.059Z,79.31
2022-12-08T13:01:13.234Z,78.61
2022-12-08T13:03:47.459Z,78.82
2022-12-08T13:06:35.458Z,78.65
2022-12-08T13:09:02.198Z,78.55
2022-12-08T13:11:28.872Z,78.57
2022-12-08T13:14:01.411Z,79.52
2022-12-08T13:16:32.373Z,80.01
2022-12-08T13:19:03.922Z,79.51
2022-12-08T13:21:37.009Z,78.79
2022-12-08T13:24:26.761Z,78.96
2022-12-08T13:27:05.710Z,78.55
2022-12-08T13:29:34.069Z,78.70
2022-12-08T13:32:02.423Z,79.29
2022-12-08T13:34:35.113Z,78.90
2022-12-08T13:37:10.957Z,79.23
2022-12-08T13:39:40.406Z,79.22
2022-12-08T13:42:29.463Z,78.45
2022-12-08T13:45:21.777Z,77.82
2022-12-08T13:48:30.152Z,78.27
2022-12-08T13:53:22.423Z,77.75
2022-12-08T13:57:11.501Z,78.42
2022-12-08T13:59:44.365Z,78.28
2022-12-08T14:02:39.705Z,77.36
2022-12-08T14:05:19.397Z,77.39
2022-12-08T14:07:51.888Z,77.30
2022-12-08T14:10:34.050Z,77.25
2022-12-08T14:13:07.321Z,77.76
2022-12-08T14:15:38.413Z,77.57
2022-12-08T14:18:21.501Z,77.25
2022-12-08T14:21:20.325Z,77.42
2022-12-08T14:23:47.581Z,75.64
2022-12-08T14:26:14.164Z,76.89
2022-12-08T14:28:44.756Z,76.76
2022-12-08T14:31:14.571Z,76.72
2022-12-08T14:33:41.678Z,76.36
2022-12-08T14:36:09.883Z,76.81
2022-12-08T14:38:36.681Z,75.42
2022-12-08T14:41:06.572Z,76.12
2022-12-08T14:43:33.741Z,75.62
2022-12-08T14:46:03.190Z,75.38
2022-12-08T14:48:38.648Z,74.46
2022-12-08T14:51:14.154Z,73.47
2022-12-08T14:53:58.581Z,73.50
2022-12-08T14:56:52.230Z,72.81
2022-12-08T14:59:43.080Z,73.91
2022-12-08T15:02:15.624Z,74.36
2022-12-08T15:04:45.887Z,74.38
2022-12-08T15:07:24.526Z,74.25
2022-12-08T15:10:24.560Z,74.48
2022-12-08T15:13:09.541Z,74.39
2022-12-08T15:16:27.200Z,74.57
2022-12-08T15:19:16.959Z,75.22
2022-12-08T15:21:45.904Z,75.82
2022-12-08T15:24:13.970Z,75.69
2022-12-08T15:26:51.031Z,75.09
2022-12-08T15:29:27.066Z,75.89
2022-12-08T15:31:59.397Z,76.19
2022-12-08T15:34:26.308Z,76.38
2022-12-08T15:36:54.720Z,77.07
2022-12-08T15:39:28.276Z,76.84
2022-12-08T15:41:54.908Z,77.50
2022-12-08T15:44:21.508Z,75.84
2022-12-08T15:46:50.071Z,75.91
2022-12-08T15:49:19.775Z,75.95
2022-12-08T15:51:47.303Z,76.35
2022-12-08T15:54:14.547Z,75.65
2022-12-08T15:57:18.505Z,75.79
2022-12-08T15:59:41.822Z,76.07
2022-12-08T16:02:12.618Z,76.80
2022-12-08T16:07:32.951Z,77.22
2022-12-08T16:09:59.755Z,76.68
2022-12-08T16:13:48.105Z,76.32
2022-12-08T16:15:51.650Z,76.74
2022-12-08T16:18:28.043Z,77.65
2022-12-08T16:21:23.840Z,77.09
2022-12-08T16:23:44.296Z,78.21
2022-12-08T16:29:20.349Z,75.80
2022-12-08T16:31:47.253Z,75.17
2022-12-08T16:34:16.522Z,74.99
2022-12-08T16:36:43.152Z,76.06
2022-12-08T16:39:12.989Z,76.48
2022-12-08T16:41:58.390Z,75.69
2022-12-08T16:44:25.088Z,75.80
2022-12-08T16:46:51.714Z,75.00
2022-12-08T16:49:18.423Z,75.71
2022-12-08T16:51:45.062Z,76.13
2022-12-08T16:54:12.052Z,76.82
2022-12-08T16:56:38.711Z,75.81
2022-12-08T16:59:05.446Z,76.18
2022-12-08T17:01:32.224Z,76.68
2022-12-08T17:04:31.152Z,78.71
2022-12-08T17:06:49.196Z,79.26
2022-12-08T17:09:15.810Z,80.38
2022-12-08T17:11:43.755Z,81.61
2022-12-08T17:14:12.454Z,79.53
2022-12-08T17:16:42.001Z,77.79
2022-12-08T17:19:09.142Z,78.40
2022-12-08T17:21:37.815Z,78.59
2022-12-08T17:24:06.196Z,79.09
2022-12-08T17:26:33.044Z,77.32
2022-12-08T17:29:04.733Z,76.54
2022-12-08T17:31:34.757Z,76.24
2022-12-08T17:34:10.622Z,77.25
2022-12-08T17:36:37.436Z,76.93
2022-12-08T17:39:05.496Z,76.96
2022-12-08T17:41:32.233Z,79.20
2022-12-08T17:43:58.799Z,80.87
2022-12-08T17:46:25.997Z,78.87
2022-12-08T17:48:54.990Z,78.69
2022-12-08T17:51:21.715Z,78.14
2022-12-08T17:53:48.345Z,77.50
2022-12-08T17:56:21.519Z,79.67
2022-12-08T17:58:54.218Z,81.91
2022-12-08T18:01:21.376Z,81.88
2022-12-08T18:03:48.083Z,80.49
2022-12-08T18:06:16.930Z,81.65
2022-12-08T18:08:43.804Z,81.40
2022-12-08T18:11:20.158Z,80.54
2022-12-08T18:13:48.743Z,79.30
2022-12-08T18:16:18.891Z,79.58
2022-12-08T18:18:47.660Z,78.64
2022-12-08T18:21:21.452Z,78.51
2022-12-08T18:23:50.986Z,78.00
2022-12-08T18:26:17.669Z,77.77
2022-12-08T18:28:44.347Z,77.75
2022-12-08T18:31:16.985Z,77.62
2022-12-08T18:33:44.882Z,77.71
2022-12-08T18:36:16.972Z,80.36
2022-12-08T18:38:44.271Z,80.09
2022-12-08T18:41:14.836Z,79.38
2022-12-08T18:43:42.972Z,79.39
2022-12-08T18:46:12.014Z,78.44
2022-12-08T18:48:47.722Z,77.96
2022-12-08T18:51:21.968Z,77.04
2022-12-08T18:53:49.169Z,76.94
2022-12-08T18:56:28.100Z,76.50
2022-12-08T18:59:02.604Z,76.33
2022-12-08T19:01:32.435Z,75.86
2022-12-08T19:06:47.261Z,77.07
2022-12-08T19:09:14.217Z,77.12
2022-12-08T19:14:27.808Z,78.82
2022-12-08T19:16:54.985Z,77.29
2022-12-08T19:19:23.742Z,77.31
2022-12-08T19:21:50.583Z,76.82
2022-12-08T19:24:19.986Z,76.48
2022-12-08T19:26:46.602Z,76.40
2022-12-08T19:29:13.567Z,76.43
2022-12-08T19:31:41.076Z,76.26
2022-12-08T19:34:09.278Z,77.05
2022-12-08T19:36:42.182Z,76.75
2022-12-08T19:39:42.194Z,77.38
2022-12-08T19:42:37.581Z,77.75
2022-12-08T19:45:17.215Z,77.03
2022-12-08T19:47:44.218Z,77.85
2022-12-08T19:50:31.613Z,78.18
2022-12-08T19:52:58.495Z,77.67
2022-12-08T19:55:26.076Z,78.87
2022-12-08T19:57:55.433Z,78.44
2022-12-08T20:00:22.144Z,78.24
2022-12-08T20:02:49.271Z,79.28
2022-12-08T20:05:15.964Z,79.87
2022-12-08T20:07:43.280Z,78.08
2022-12-08T20:10:16.352Z,77.20
2022-12-08T20:12:43.182Z,76.96
2022-12-08T20:15:10.554Z,77.92
2022-12-08T20:17:38.474Z,77.20
2022-12-08T20:20:07.647Z,77.90
2022-12-08T20:22:35.193Z,77.68
2022-12-08T20:25:02.400Z,77.26
2022-12-08T20:27:29.327Z,77.94
2022-12-08T20:29:56.059Z,78.33
2022-12-08T20:32:25.788Z,78.21
2022-12-08T20:34:53.897Z,77.74
2022-12-08T20:37:20.513Z,77.90
2022-12-08T20:39:47.144Z,77.98
2022-12-08T20:42:16.515Z,76.06
2022-12-08T20:44:44.611Z,76.60
2022-12-08T20:47:12.595Z,76.44
2022-12-08T20:49:39.439Z,77.41
2022-12-08T20:52:06.711Z,78.66
2022-12-08T20:54:33.727Z,79.19
2022-12-08T20:57:01.076Z,78.70
2022-12-08T20:59:27.789Z,79.38
2022-12-08T21:01:54.997Z,79.66
2022-12-08T21:04:23.277Z,79.39
2022-12-08T21:06:50.305Z,79.51
2022-12-08T21:09:17.151Z,79.59
2022-12-08T21:11:43.948Z,79.66
2022-12-08T21:14:11.163Z,80.96
2022-12-08T21:16:38.771Z,80.30
2022-12-08T21:19:06.320Z,79.51
2022-12-08T21:21:33.272Z,78.54
2022-12-08T21:24:00.060Z,77.13
2022-12-08T21:26:26.978Z,77.29
2022-12-08T21:28:58.534Z,75.75
2022-12-08T21:31:31.989Z,75.80
2022-12-08T21:34:03.487Z,76.42
2022-12-08T21:36:31.392Z,76.60
2022-12-08T21:39:00.766Z,76.63
2022-12-08T21:41:47.697Z,76.26
2022-12-08T21:44:18.720Z,75.19
2022-12-08T21:46:45.978Z,75.60
2022-12-08T21:49:12.707Z,75.11
2022-12-08T21:51:42.299Z,74.76
2022-12-08T21:54:18.604Z,76.42
2022-12-08T21:56:48.677Z,76.12
2022-12-08T21:59:16.096Z,76.21
2022-12-08T22:01:45.972Z,76.28
2022-12-08T22:04:17.536Z,76.55
2022-12-08T22:06:44.263Z,75.63
2022-12-08T22:09:15.277Z,75.56
2022-12-08T22:11:45.317Z,75.17
2022-12-08T22:14:15.511Z,74.87
2022-12-08T22:16:43.184Z,75.02
2022-12-08T22:19:10.200Z,74.53
2022-12-08T22:21:38.216Z,73.80
2022-12-08T22:24:05.329Z,72.92
2022-12-08T22:26:32.240Z,73.35
2022-12-08T22:28:58.813Z,73.79
2022-12-08T22:31:26.261Z,73.49
2022-12-08T22:33:55.337Z,73.90
2022-12-08T22:36:24.523Z,74.58
2022-12-08T22:38:52.858Z,75.09
2022-12-08T22:41:19.821Z,73.92
2022-12-08T22:43:50.261Z,73.24
2022-12-08T22:46:19.891Z,74.18
2022-12-08T22:48:47.141Z,75.50
2022-12-08T22:51:14.222Z,77.27
2022-12-08T22:53:41.483Z,78.19
2022-12-08T22:56:10.469Z,76.53
2022-12-08T22:58:38.612Z,76.34
2022-12-08T23:01:05.912Z,76.42
2022-12-08T23:03:33.287Z,75.13
2022-12-08T23:06:00.274Z,73.83
2022-12-08T23:08:27.176Z,73.61
2022-12-08T23:10:54.424Z,73.71
2022-12-08T23:13:22.006Z,74.10
2022-12-08T23:15:50.015Z,74.99
2022-12-08T23:18:19.236Z,74.79
2022-12-08T23:20:48.250Z,74.25
2022-12-08T23:23:17.916Z,74.41
2022-12-08T23:25:46.485Z,74.10
2022-12-08T23:28:13.484Z,73.45
2022-12-08T23:30:43.212Z,74.05
2022-12-08T23:33:10.650Z,74.30
2022-12-08T23:35:37.515Z,75.09
2022-12-08T23:38:04.683Z,76.56
2022-12-08T23:40:33.685Z,77.77
2022-12-08T23:43:00.335Z,75.70
2022-12-08T23:45:27.051Z,76.92
2022-12-08T23:47:53.714Z,77.59
2022-12-08T23:50:20.267Z,77.37
2022-12-08T23:52:46.907Z,79.52
2022-12-08T23:55:13.581Z,78.88
2022-12-08T23:57:40.241Z,77.81
